Kingsclere, United Kingdom
Current Conditions -  °F | °C
As of 10:50 PM on Tuesday 27 Jan 2015 (Local Time) from EGVO Reporting Station
Broken Clouds Broken Clouds  
Wind Chill: 36°   Ceiling: 2200
Heat Index: 43°   Visibility: 6mi
Dew Point: 36°   Wind: 13mph
Humidity: 76%   Direction: 210°SSW
Pressure: 30.12"   Gusts: NA
Location:  51.32°N, 1.24°W
Report Text: EGVO 272250Z 21011KT 9999 BKN022 06/02 Q1020 WHT NOSIG
Loading
Personal Weather Stations






























Interactive Weather Map New forecast layout! Learn more

10-Day Weather Forecast

Advertisements
Track Severe Weather on mobile